<?xml version="1.0" encoding="UTF-8" standalone="no" ?>
<gpx xmlns="http://www.topografix.com/GPX/1/1" xmlns:xsi="http://www.w3.org/2001/XMLSchema-instance" xsi:schemaLocation="http://www.topografix.com/GPX/1/1 http://www.topografix.com/GPX/1/1/gpx.xsd" version="1.1" creator="VisuGPX - https://www.visugpx.com">
  <metadata>
    <name>Balade sur le cap d'Erquy</name>
    <desc><![CDATA[Rq : peu de places sur le petit parking au bout de la route du four à boulets.]]></desc>
  </metadata>
  <trk>
    <name><![CDATA[12/04/2022 10:38:01 Balade sur le cap d'Erquy]]></name>
    <trkseg>
      <trkpt lat="48.64206" lon="-2.4835">
        <ele>39.200000762939</ele>
        <time>2022-04-12T08:38:01Z</time>
      </trkpt>
      <trkpt lat="48.64206" lon="-2.4835">
        <ele>39.200000762939</ele>
        <time>2022-04-12T08:38:02Z</time>
      </trkpt>
      <trkpt lat="48.64209" lon="-2.48355">
        <ele>39.200000762939</ele>
        <time>2022-04-12T08:38:09Z</time>
      </trkpt>
      <trkpt lat="48.6422" lon="-2.48367">
        <ele>38.400001525879</ele>
        <time>2022-04-12T08:38:29Z</time>
      </trkpt>
      <trkpt lat="48.64227" lon="-2.4836">
        <ele>37.599998474121</ele>
        <time>2022-04-12T08:38:54Z</time>
      </trkpt>
      <trkpt lat="48.64235" lon="-2.48347">
        <ele>37.200000762939</ele>
        <time>2022-04-12T08:39:16Z</time>
      </trkpt>
      <trkpt lat="48.6423" lon="-2.48356">
        <ele>37</ele>
        <time>2022-04-12T08:39:47Z</time>
      </trkpt>
      <trkpt lat="48.64223" lon="-2.48369">
        <ele>37.400001525879</ele>
        <time>2022-04-12T08:39:59Z</time>
      </trkpt>
      <trkpt lat="48.64216" lon="-2.48387">
        <ele>37.200000762939</ele>
        <time>2022-04-12T08:40:16Z</time>
      </trkpt>
      <trkpt lat="48.64211" lon="-2.48408">
        <ele>37</ele>
        <time>2022-04-12T08:40:34Z</time>
      </trkpt>
      <trkpt lat="48.64209" lon="-2.48426">
        <ele>37</ele>
        <time>2022-04-12T08:40:48Z</time>
      </trkpt>
      <trkpt lat="48.64211" lon="-2.48455">
        <ele>36</ele>
        <time>2022-04-12T08:41:07Z</time>
      </trkpt>
      <trkpt lat="48.64215" lon="-2.48471">
        <ele>35.599998474121</ele>
        <time>2022-04-12T08:41:20Z</time>
      </trkpt>
      <trkpt lat="48.64217" lon="-2.48475">
        <ele>35.400001525879</ele>
        <time>2022-04-12T08:41:24Z</time>
      </trkpt>
      <trkpt lat="48.64218" lon="-2.48478">
        <ele>35.200000762939</ele>
        <time>2022-04-12T08:41:27Z</time>
      </trkpt>
      <trkpt lat="48.6422" lon="-2.48482">
        <ele>35.200000762939</ele>
        <time>2022-04-12T08:41:30Z</time>
      </trkpt>
      <trkpt lat="48.64221" lon="-2.48492">
        <ele>35.200000762939</ele>
        <time>2022-04-12T08:41:36Z</time>
      </trkpt>
      <trkpt lat="48.6423" lon="-2.4851">
        <ele>35</ele>
        <time>2022-04-12T08:41:52Z</time>
      </trkpt>
      <trkpt lat="48.64231" lon="-2.48513">
        <ele>34.799999237061</ele>
        <time>2022-04-12T08:42:14Z</time>
      </trkpt>
      <trkpt lat="48.64237" lon="-2.48523">
        <ele>34.799999237061</ele>
        <time>2022-04-12T08:42:30Z</time>
      </trkpt>
      <trkpt lat="48.64243" lon="-2.48535">
        <ele>33.599998474121</ele>
        <time>2022-04-12T08:42:58Z</time>
      </trkpt>
      <trkpt lat="48.6425" lon="-2.48546">
        <ele>31.799999237061</ele>
        <time>2022-04-12T08:43:14Z</time>
      </trkpt>
      <trkpt lat="48.64251" lon="-2.48547">
        <ele>31.60000038147</ele>
        <time>2022-04-12T08:43:17Z</time>
      </trkpt>
      <trkpt lat="48.64254" lon="-2.48549">
        <ele>31</ele>
        <time>2022-04-12T08:43:21Z</time>
      </trkpt>
      <trkpt lat="48.64261" lon="-2.48553">
        <ele>30.39999961853</ele>
        <time>2022-04-12T08:43:28Z</time>
      </trkpt>
      <trkpt lat="48.64276" lon="-2.4858">
        <ele>29.39999961853</ele>
        <time>2022-04-12T08:43:53Z</time>
      </trkpt>
      <trkpt lat="48.64276" lon="-2.48581">
        <ele>29.60000038147</ele>
        <time>2022-04-12T08:44:18Z</time>
      </trkpt>
      <trkpt lat="48.64274" lon="-2.48589">
        <ele>30.39999961853</ele>
        <time>2022-04-12T08:44:44Z</time>
      </trkpt>
      <trkpt lat="48.64275" lon="-2.48584">
        <ele>30</ele>
        <time>2022-04-12T08:45:03Z</time>
      </trkpt>
      <trkpt lat="48.64283" lon="-2.48583">
        <ele>30.200000762939</ele>
        <time>2022-04-12T08:45:16Z</time>
      </trkpt>
      <trkpt lat="48.64295" lon="-2.4859">
        <ele>31</ele>
        <time>2022-04-12T08:45:30Z</time>
      </trkpt>
      <trkpt lat="48.64304" lon="-2.4859">
        <ele>32.200000762939</ele>
        <time>2022-04-12T08:45:42Z</time>
      </trkpt>
      <trkpt lat="48.64326" lon="-2.48598">
        <ele>33.400001525879</ele>
        <time>2022-04-12T08:46:06Z</time>
      </trkpt>
      <trkpt lat="48.64344" lon="-2.48593">
        <ele>32.200000762939</ele>
        <time>2022-04-12T08:46:26Z</time>
      </trkpt>
      <trkpt lat="48.64352" lon="-2.48594">
        <ele>31.39999961853</ele>
        <time>2022-04-12T08:46:34Z</time>
      </trkpt>
      <trkpt lat="48.64364" lon="-2.48603">
        <ele>28.799999237061</ele>
        <time>2022-04-12T08:46:51Z</time>
      </trkpt>
      <trkpt lat="48.64375" lon="-2.48611">
        <ele>27.60000038147</ele>
        <time>2022-04-12T08:47:05Z</time>
      </trkpt>
      <trkpt lat="48.64377" lon="-2.48616">
        <ele>26.799999237061</ele>
        <time>2022-04-12T08:47:10Z</time>
      </trkpt>
      <trkpt lat="48.64395" lon="-2.48619">
        <ele>26</ele>
        <time>2022-04-12T08:47:27Z</time>
      </trkpt>
      <trkpt lat="48.64407" lon="-2.48611">
        <ele>27</ele>
        <time>2022-04-12T08:47:47Z</time>
      </trkpt>
      <trkpt lat="48.64415" lon="-2.48612">
        <ele>30.200000762939</ele>
        <time>2022-04-12T08:48:01Z</time>
      </trkpt>
      <trkpt lat="48.64423" lon="-2.48625">
        <ele>33</ele>
        <time>2022-04-12T08:48:17Z</time>
      </trkpt>
      <trkpt lat="48.6443" lon="-2.48633">
        <ele>34.200000762939</ele>
        <time>2022-04-12T08:48:29Z</time>
      </trkpt>
      <trkpt lat="48.64444" lon="-2.4865">
        <ele>35.200000762939</ele>
        <time>2022-04-12T08:48:48Z</time>
      </trkpt>
      <trkpt lat="48.6445" lon="-2.48656">
        <ele>36.599998474121</ele>
        <time>2022-04-12T08:49:05Z</time>
      </trkpt>
      <trkpt lat="48.64448" lon="-2.4866">
        <ele>37</ele>
        <time>2022-04-12T08:49:32Z</time>
      </trkpt>
      <trkpt lat="48.64447" lon="-2.48659">
        <ele>36.799999237061</ele>
        <time>2022-04-12T08:50:11Z</time>
      </trkpt>
      <trkpt lat="48.64446" lon="-2.48658">
        <ele>35.799999237061</ele>
        <time>2022-04-12T08:51:21Z</time>
      </trkpt>
      <trkpt lat="48.64446" lon="-2.48659">
        <ele>36</ele>
        <time>2022-04-12T08:51:43Z</time>
      </trkpt>
      <trkpt lat="48.64447" lon="-2.48653">
        <ele>35.799999237061</ele>
        <time>2022-04-12T08:51:51Z</time>
      </trkpt>
      <trkpt lat="48.6445" lon="-2.48638">
        <ele>35.200000762939</ele>
        <time>2022-04-12T08:52:04Z</time>
      </trkpt>
      <trkpt lat="48.64462" lon="-2.48621">
        <ele>35.400001525879</ele>
        <time>2022-04-12T08:52:23Z</time>
      </trkpt>
      <trkpt lat="48.64477" lon="-2.4862">
        <ele>37.400001525879</ele>
        <time>2022-04-12T08:52:41Z</time>
      </trkpt>
      <trkpt lat="48.64485" lon="-2.48617">
        <ele>38.599998474121</ele>
        <time>2022-04-12T08:52:58Z</time>
      </trkpt>
      <trkpt lat="48.64488" lon="-2.4861">
        <ele>40</ele>
        <time>2022-04-12T08:53:17Z</time>
      </trkpt>
      <trkpt lat="48.6449" lon="-2.48611">
        <ele>37.599998474121</ele>
        <time>2022-04-12T08:53:43Z</time>
      </trkpt>
      <trkpt lat="48.64487" lon="-2.48613">
        <ele>37.799999237061</ele>
        <time>2022-04-12T08:54:26Z</time>
      </trkpt>
      <trkpt lat="48.6449" lon="-2.48603">
        <ele>37.799999237061</ele>
        <time>2022-04-12T08:54:37Z</time>
      </trkpt>
      <trkpt lat="48.64492" lon="-2.48596">
        <ele>36.599998474121</ele>
        <time>2022-04-12T08:54:55Z</time>
      </trkpt>
      <trkpt lat="48.64491" lon="-2.48592">
        <ele>36.400001525879</ele>
        <time>2022-04-12T08:55:20Z</time>
      </trkpt>
      <trkpt lat="48.6449" lon="-2.48577">
        <ele>36.200000762939</ele>
        <time>2022-04-12T08:55:38Z</time>
      </trkpt>
      <trkpt lat="48.6449" lon="-2.48558">
        <ele>35.799999237061</ele>
        <time>2022-04-12T08:55:53Z</time>
      </trkpt>
      <trkpt lat="48.64492" lon="-2.4854">
        <ele>34.799999237061</ele>
        <time>2022-04-12T08:56:09Z</time>
      </trkpt>
      <trkpt lat="48.64493" lon="-2.48525">
        <ele>34.599998474121</ele>
        <time>2022-04-12T08:56:24Z</time>
      </trkpt>
      <trkpt lat="48.6449" lon="-2.48512">
        <ele>34.799999237061</ele>
        <time>2022-04-12T08:56:40Z</time>
      </trkpt>
      <trkpt lat="48.64486" lon="-2.48504">
        <ele>35.200000762939</ele>
        <time>2022-04-12T08:57:07Z</time>
      </trkpt>
      <trkpt lat="48.64481" lon="-2.48492">
        <ele>35.200000762939</ele>
        <time>2022-04-12T08:57:29Z</time>
      </trkpt>
      <trkpt lat="48.64477" lon="-2.48483">
        <ele>35.400001525879</ele>
        <time>2022-04-12T08:57:52Z</time>
      </trkpt>
      <trkpt lat="48.64469" lon="-2.48466">
        <ele>35</ele>
        <time>2022-04-12T08:58:12Z</time>
      </trkpt>
      <trkpt lat="48.64463" lon="-2.4844">
        <ele>35.799999237061</ele>
        <time>2022-04-12T08:58:35Z</time>
      </trkpt>
      <trkpt lat="48.64462" lon="-2.4842">
        <ele>37.200000762939</ele>
        <time>2022-04-12T08:58:54Z</time>
      </trkpt>
      <trkpt lat="48.64459" lon="-2.48398">
        <ele>37.799999237061</ele>
        <time>2022-04-12T08:59:12Z</time>
      </trkpt>
      <trkpt lat="48.64459" lon="-2.48394">
        <ele>38.400001525879</ele>
        <time>2022-04-12T08:59:28Z</time>
      </trkpt>
      <trkpt lat="48.64459" lon="-2.48387">
        <ele>38.799999237061</ele>
        <time>2022-04-12T09:00:01Z</time>
      </trkpt>
      <trkpt lat="48.64455" lon="-2.48377">
        <ele>38.799999237061</ele>
        <time>2022-04-12T09:00:19Z</time>
      </trkpt>
      <trkpt lat="48.64448" lon="-2.48371">
        <ele>38.599998474121</ele>
        <time>2022-04-12T09:00:35Z</time>
      </trkpt>
      <trkpt lat="48.64439" lon="-2.4835">
        <ele>36.599998474121</ele>
        <time>2022-04-12T09:00:53Z</time>
      </trkpt>
      <trkpt lat="48.64436" lon="-2.48327">
        <ele>35.599998474121</ele>
        <time>2022-04-12T09:01:10Z</time>
      </trkpt>
      <trkpt lat="48.64432" lon="-2.48314">
        <ele>34.599998474121</ele>
        <time>2022-04-12T09:01:21Z</time>
      </trkpt>
      <trkpt lat="48.64426" lon="-2.48299">
        <ele>34.200000762939</ele>
        <time>2022-04-12T09:01:38Z</time>
      </trkpt>
      <trkpt lat="48.64424" lon="-2.48294">
        <ele>34.200000762939</ele>
        <time>2022-04-12T09:01:42Z</time>
      </trkpt>
      <trkpt lat="48.64418" lon="-2.48284">
        <ele>34.400001525879</ele>
        <time>2022-04-12T09:01:54Z</time>
      </trkpt>
      <trkpt lat="48.64417" lon="-2.48267">
        <ele>34</ele>
        <time>2022-04-12T09:02:10Z</time>
      </trkpt>
      <trkpt lat="48.64417" lon="-2.48265">
        <ele>34</ele>
        <time>2022-04-12T09:02:12Z</time>
      </trkpt>
      <trkpt lat="48.64415" lon="-2.48252">
        <ele>34</ele>
        <time>2022-04-12T09:02:25Z</time>
      </trkpt>
      <trkpt lat="48.64414" lon="-2.48251">
        <ele>33.799999237061</ele>
        <time>2022-04-12T09:02:30Z</time>
      </trkpt>
      <trkpt lat="48.64408" lon="-2.48254">
        <ele>34.200000762939</ele>
        <time>2022-04-12T09:02:39Z</time>
      </trkpt>
      <trkpt lat="48.64391" lon="-2.48251">
        <ele>34.400001525879</ele>
        <time>2022-04-12T09:02:58Z</time>
      </trkpt>
      <trkpt lat="48.64384" lon="-2.48251">
        <ele>34.400001525879</ele>
        <time>2022-04-12T09:03:09Z</time>
      </trkpt>
      <trkpt lat="48.6438" lon="-2.48244">
        <ele>33.799999237061</ele>
        <time>2022-04-12T09:03:17Z</time>
      </trkpt>
      <trkpt lat="48.64365" lon="-2.48241">
        <ele>32.200000762939</ele>
        <time>2022-04-12T09:03:34Z</time>
      </trkpt>
      <trkpt lat="48.64359" lon="-2.48238">
        <ele>31.39999961853</ele>
        <time>2022-04-12T09:03:56Z</time>
      </trkpt>
      <trkpt lat="48.6436" lon="-2.48235">
        <ele>31.200000762939</ele>
        <time>2022-04-12T09:04:36Z</time>
      </trkpt>
      <trkpt lat="48.6436" lon="-2.48239">
        <ele>31.60000038147</ele>
        <time>2022-04-12T09:05:19Z</time>
      </trkpt>
      <trkpt lat="48.6436" lon="-2.4823">
        <ele>31.200000762939</ele>
        <time>2022-04-12T09:05:56Z</time>
      </trkpt>
      <trkpt lat="48.64356" lon="-2.48217">
        <ele>28</ele>
        <time>2022-04-12T09:06:08Z</time>
      </trkpt>
      <trkpt lat="48.64356" lon="-2.48211">
        <ele>26.39999961853</ele>
        <time>2022-04-12T09:06:12Z</time>
      </trkpt>
      <trkpt lat="48.6435" lon="-2.48198">
        <ele>23</ele>
        <time>2022-04-12T09:06:22Z</time>
      </trkpt>
      <trkpt lat="48.6435" lon="-2.48195">
        <ele>22.799999237061</ele>
        <time>2022-04-12T09:06:24Z</time>
      </trkpt>
      <trkpt lat="48.64349" lon="-2.48177">
        <ele>25.200000762939</ele>
        <time>2022-04-12T09:06:43Z</time>
      </trkpt>
      <trkpt lat="48.64354" lon="-2.48169">
        <ele>28.200000762939</ele>
        <time>2022-04-12T09:06:55Z</time>
      </trkpt>
      <trkpt lat="48.64364" lon="-2.48159">
        <ele>31.200000762939</ele>
        <time>2022-04-12T09:07:11Z</time>
      </trkpt>
      <trkpt lat="48.64371" lon="-2.48145">
        <ele>32.400001525879</ele>
        <time>2022-04-12T09:07:27Z</time>
      </trkpt>
      <trkpt lat="48.64373" lon="-2.48133">
        <ele>34</ele>
        <time>2022-04-12T09:07:36Z</time>
      </trkpt>
      <trkpt lat="48.64372" lon="-2.48106">
        <ele>34.400001525879</ele>
        <time>2022-04-12T09:07:56Z</time>
      </trkpt>
      <trkpt lat="48.64369" lon="-2.48086">
        <ele>34.799999237061</ele>
        <time>2022-04-12T09:08:11Z</time>
      </trkpt>
      <trkpt lat="48.64366" lon="-2.48066">
        <ele>35.599998474121</ele>
        <time>2022-04-12T09:08:30Z</time>
      </trkpt>
      <trkpt lat="48.64364" lon="-2.48041">
        <ele>36.200000762939</ele>
        <time>2022-04-12T09:08:50Z</time>
      </trkpt>
      <trkpt lat="48.64364" lon="-2.48039">
        <ele>36.200000762939</ele>
        <time>2022-04-12T09:08:51Z</time>
      </trkpt>
      <trkpt lat="48.64368" lon="-2.48008">
        <ele>36.400001525879</ele>
        <time>2022-04-12T09:09:15Z</time>
      </trkpt>
      <trkpt lat="48.64367" lon="-2.48006">
        <ele>37.200000762939</ele>
        <time>2022-04-12T09:09:36Z</time>
      </trkpt>
      <trkpt lat="48.64369" lon="-2.48005">
        <ele>37.200000762939</ele>
        <time>2022-04-12T09:09:54Z</time>
      </trkpt>
      <trkpt lat="48.64369" lon="-2.48005">
        <ele>37</ele>
        <time>2022-04-12T09:10:30Z</time>
      </trkpt>
      <trkpt lat="48.64368" lon="-2.48001">
        <ele>37</ele>
        <time>2022-04-12T09:11:02Z</time>
      </trkpt>
      <trkpt lat="48.64373" lon="-2.47987">
        <ele>37.400001525879</ele>
        <time>2022-04-12T09:11:16Z</time>
      </trkpt>
      <trkpt lat="48.64377" lon="-2.47974">
        <ele>38.200000762939</ele>
        <time>2022-04-12T09:11:36Z</time>
      </trkpt>
      <trkpt lat="48.6438" lon="-2.47954">
        <ele>38.599998474121</ele>
        <time>2022-04-12T09:11:52Z</time>
      </trkpt>
      <trkpt lat="48.64382" lon="-2.47946">
        <ele>41.799999237061</ele>
        <time>2022-04-12T09:12:07Z</time>
      </trkpt>
      <trkpt lat="48.64387" lon="-2.47948">
        <ele>42.599998474121</ele>
        <time>2022-04-12T09:12:30Z</time>
      </trkpt>
      <trkpt lat="48.64389" lon="-2.47944">
        <ele>42.599998474121</ele>
        <time>2022-04-12T09:12:42Z</time>
      </trkpt>
      <trkpt lat="48.64387" lon="-2.47942">
        <ele>42.400001525879</ele>
        <time>2022-04-12T09:13:36Z</time>
      </trkpt>
      <trkpt lat="48.64388" lon="-2.4794">
        <ele>42.799999237061</ele>
        <time>2022-04-12T09:14:35Z</time>
      </trkpt>
      <trkpt lat="48.64384" lon="-2.47929">
        <ele>42.400001525879</ele>
        <time>2022-04-12T09:14:48Z</time>
      </trkpt>
      <trkpt lat="48.64379" lon="-2.47908">
        <ele>42</ele>
        <time>2022-04-12T09:15:05Z</time>
      </trkpt>
      <trkpt lat="48.64376" lon="-2.47886">
        <ele>41.599998474121</ele>
        <time>2022-04-12T09:15:33Z</time>
      </trkpt>
      <trkpt lat="48.64376" lon="-2.47852">
        <ele>40.799999237061</ele>
        <time>2022-04-12T09:15:54Z</time>
      </trkpt>
      <trkpt lat="48.64377" lon="-2.47828">
        <ele>40.599998474121</ele>
        <time>2022-04-12T09:16:10Z</time>
      </trkpt>
      <trkpt lat="48.64376" lon="-2.47814">
        <ele>40.799999237061</ele>
        <time>2022-04-12T09:16:21Z</time>
      </trkpt>
      <trkpt lat="48.64374" lon="-2.47789">
        <ele>42.599998474121</ele>
        <time>2022-04-12T09:16:41Z</time>
      </trkpt>
      <trkpt lat="48.64373" lon="-2.47778">
        <ele>43.200000762939</ele>
        <time>2022-04-12T09:16:54Z</time>
      </trkpt>
      <trkpt lat="48.64374" lon="-2.47775">
        <ele>42</ele>
        <time>2022-04-12T09:17:13Z</time>
      </trkpt>
      <trkpt lat="48.64373" lon="-2.47775">
        <ele>42</ele>
        <time>2022-04-12T09:17:36Z</time>
      </trkpt>
      <trkpt lat="48.64374" lon="-2.47775">
        <ele>41.400001525879</ele>
        <time>2022-04-12T09:18:12Z</time>
      </trkpt>
      <trkpt lat="48.64374" lon="-2.47776">
        <ele>41.599998474121</ele>
        <time>2022-04-12T09:18:40Z</time>
      </trkpt>
      <trkpt lat="48.64368" lon="-2.47771">
        <ele>41.799999237061</ele>
        <time>2022-04-12T09:19:17Z</time>
      </trkpt>
      <trkpt lat="48.6436" lon="-2.47752">
        <ele>40.400001525879</ele>
        <time>2022-04-12T09:19:34Z</time>
      </trkpt>
      <trkpt lat="48.64353" lon="-2.47731">
        <ele>40.599998474121</ele>
        <time>2022-04-12T09:19:50Z</time>
      </trkpt>
      <trkpt lat="48.64351" lon="-2.47725">
        <ele>40.599998474121</ele>
        <time>2022-04-12T09:19:54Z</time>
      </trkpt>
      <trkpt lat="48.6435" lon="-2.47714">
        <ele>40.799999237061</ele>
        <time>2022-04-12T09:20:01Z</time>
      </trkpt>
      <trkpt lat="48.6435" lon="-2.47701">
        <ele>40.599998474121</ele>
        <time>2022-04-12T09:20:09Z</time>
      </trkpt>
      <trkpt lat="48.64346" lon="-2.47682">
        <ele>40.200000762939</ele>
        <time>2022-04-12T09:20:23Z</time>
      </trkpt>
      <trkpt lat="48.64346" lon="-2.47658">
        <ele>40.200000762939</ele>
        <time>2022-04-12T09:20:38Z</time>
      </trkpt>
      <trkpt lat="48.64349" lon="-2.47635">
        <ele>39.200000762939</ele>
        <time>2022-04-12T09:20:54Z</time>
      </trkpt>
      <trkpt lat="48.64349" lon="-2.47618">
        <ele>38.400001525879</ele>
        <time>2022-04-12T09:21:11Z</time>
      </trkpt>
      <trkpt lat="48.64348" lon="-2.47612">
        <ele>38.200000762939</ele>
        <time>2022-04-12T09:21:16Z</time>
      </trkpt>
      <trkpt lat="48.64344" lon="-2.47605">
        <ele>37.799999237061</ele>
        <time>2022-04-12T09:21:24Z</time>
      </trkpt>
      <trkpt lat="48.64339" lon="-2.476">
        <ele>37.200000762939</ele>
        <time>2022-04-12T09:21:31Z</time>
      </trkpt>
      <trkpt lat="48.64326" lon="-2.4759">
        <ele>36</ele>
        <time>2022-04-12T09:21:46Z</time>
      </trkpt>
      <trkpt lat="48.64324" lon="-2.4759">
        <ele>35.599998474121</ele>
        <time>2022-04-12T09:21:49Z</time>
      </trkpt>
      <trkpt lat="48.64318" lon="-2.47603">
        <ele>36.799999237061</ele>
        <time>2022-04-12T09:22:03Z</time>
      </trkpt>
      <trkpt lat="48.64314" lon="-2.47619">
        <ele>37.599998474121</ele>
        <time>2022-04-12T09:22:20Z</time>
      </trkpt>
      <trkpt lat="48.64313" lon="-2.47635">
        <ele>38.599998474121</ele>
        <time>2022-04-12T09:22:35Z</time>
      </trkpt>
      <trkpt lat="48.64305" lon="-2.47641">
        <ele>38</ele>
        <time>2022-04-12T09:22:50Z</time>
      </trkpt>
      <trkpt lat="48.64297" lon="-2.47649">
        <ele>36.799999237061</ele>
        <time>2022-04-12T09:23:06Z</time>
      </trkpt>
      <trkpt lat="48.64291" lon="-2.47643">
        <ele>35</ele>
        <time>2022-04-12T09:23:23Z</time>
      </trkpt>
      <trkpt lat="48.64289" lon="-2.47637">
        <ele>34.400001525879</ele>
        <time>2022-04-12T09:24:03Z</time>
      </trkpt>
      <trkpt lat="48.64287" lon="-2.47624">
        <ele>31.799999237061</ele>
        <time>2022-04-12T09:24:23Z</time>
      </trkpt>
      <trkpt lat="48.64282" lon="-2.47616">
        <ele>29.60000038147</ele>
        <time>2022-04-12T09:24:38Z</time>
      </trkpt>
      <trkpt lat="48.64273" lon="-2.47609">
        <ele>26.39999961853</ele>
        <time>2022-04-12T09:24:52Z</time>
      </trkpt>
      <trkpt lat="48.64269" lon="-2.47597">
        <ele>23.39999961853</ele>
        <time>2022-04-12T09:25:10Z</time>
      </trkpt>
      <trkpt lat="48.64277" lon="-2.47578">
        <ele>21.60000038147</ele>
        <time>2022-04-12T09:25:36Z</time>
      </trkpt>
      <trkpt lat="48.64291" lon="-2.47562">
        <ele>20.200000762939</ele>
        <time>2022-04-12T09:25:51Z</time>
      </trkpt>
      <trkpt lat="48.64295" lon="-2.47557">
        <ele>19.60000038147</ele>
        <time>2022-04-12T09:25:55Z</time>
      </trkpt>
      <trkpt lat="48.64318" lon="-2.47535">
        <ele>17</ele>
        <time>2022-04-12T09:26:20Z</time>
      </trkpt>
      <trkpt lat="48.6432" lon="-2.47533">
        <ele>16.60000038147</ele>
        <time>2022-04-12T09:26:22Z</time>
      </trkpt>
      <trkpt lat="48.64338" lon="-2.47525">
        <ele>14.800000190735</ele>
        <time>2022-04-12T09:26:40Z</time>
      </trkpt>
      <trkpt lat="48.6436" lon="-2.47529">
        <ele>12.199999809265</ele>
        <time>2022-04-12T09:26:59Z</time>
      </trkpt>
      <trkpt lat="48.64361" lon="-2.47529">
        <ele>12</ele>
        <time>2022-04-12T09:27:00Z</time>
      </trkpt>
      <trkpt lat="48.64384" lon="-2.47533">
        <ele>9.1999998092651</ele>
        <time>2022-04-12T09:27:21Z</time>
      </trkpt>
      <trkpt lat="48.644" lon="-2.47543">
        <ele>7.1999998092651</ele>
        <time>2022-04-12T09:27:38Z</time>
      </trkpt>
      <trkpt lat="48.64401" lon="-2.47543">
        <ele>7.1999998092651</ele>
        <time>2022-04-12T09:27:39Z</time>
      </trkpt>
      <trkpt lat="48.64404" lon="-2.47544">
        <ele>6.8000001907349</ele>
        <time>2022-04-12T09:27:42Z</time>
      </trkpt>
      <trkpt lat="48.64415" lon="-2.47564">
        <ele>5.5999999046326</ele>
        <time>2022-04-12T09:27:58Z</time>
      </trkpt>
      <trkpt lat="48.64427" lon="-2.47567">
        <ele>3.7999999523163</ele>
        <time>2022-04-12T09:28:14Z</time>
      </trkpt>
      <trkpt lat="48.64435" lon="-2.47555">
        <ele>2.5999999046326</ele>
        <time>2022-04-12T09:28:31Z</time>
      </trkpt>
      <trkpt lat="48.64441" lon="-2.47539">
        <ele>0.60000002384186</ele>
        <time>2022-04-12T09:28:47Z</time>
      </trkpt>
      <trkpt lat="48.64443" lon="-2.47535">
        <ele>-0.40000000596046</ele>
        <time>2022-04-12T09:28:51Z</time>
      </trkpt>
      <trkpt lat="48.64448" lon="-2.47533">
        <ele>-2.4000000953674</ele>
        <time>2022-04-12T09:29:10Z</time>
      </trkpt>
      <trkpt lat="48.64455" lon="-2.47534">
        <ele>-2.4000000953674</ele>
        <time>2022-04-12T09:29:20Z</time>
      </trkpt>
      <trkpt lat="48.64469" lon="-2.47534">
        <ele>-4.1999998092651</ele>
        <time>2022-04-12T09:29:37Z</time>
      </trkpt>
      <trkpt lat="48.64472" lon="-2.47535">
        <ele>-4.8000001907349</ele>
        <time>2022-04-12T09:29:58Z</time>
      </trkpt>
      <trkpt lat="48.64476" lon="-2.47539">
        <ele>-6.5999999046326</ele>
        <time>2022-04-12T09:30:32Z</time>
      </trkpt>
      <trkpt lat="48.64473" lon="-2.47538">
        <ele>-6.5999999046326</ele>
        <time>2022-04-12T09:31:00Z</time>
      </trkpt>
      <trkpt lat="48.64466" lon="-2.47535">
        <ele>-6.5999999046326</ele>
        <time>2022-04-12T09:32:23Z</time>
      </trkpt>
      <trkpt lat="48.64455" lon="-2.47535">
        <ele>-4.8000001907349</ele>
        <time>2022-04-12T09:32:39Z</time>
      </trkpt>
      <trkpt lat="48.64457" lon="-2.47527">
        <ele>-3.7999999523163</ele>
        <time>2022-04-12T09:32:57Z</time>
      </trkpt>
      <trkpt lat="48.64459" lon="-2.47516">
        <ele>-2</ele>
        <time>2022-04-12T09:33:16Z</time>
      </trkpt>
      <trkpt lat="48.6446" lon="-2.47513">
        <ele>-1.7999999523163</ele>
        <time>2022-04-12T09:33:19Z</time>
      </trkpt>
      <trkpt lat="48.64464" lon="-2.47497">
        <ele>-1.6000000238419</ele>
        <time>2022-04-12T09:33:32Z</time>
      </trkpt>
      <trkpt lat="48.64472" lon="-2.47489">
        <ele>-2.2000000476837</ele>
        <time>2022-04-12T09:33:43Z</time>
      </trkpt>
      <trkpt lat="48.6448" lon="-2.47485">
        <ele>-2.5999999046326</ele>
        <time>2022-04-12T09:33:59Z</time>
      </trkpt>
      <trkpt lat="48.64484" lon="-2.47476">
        <ele>-2.5999999046326</ele>
        <time>2022-04-12T09:34:13Z</time>
      </trkpt>
      <trkpt lat="48.64485" lon="-2.4747">
        <ele>-2.5999999046326</ele>
        <time>2022-04-12T09:34:18Z</time>
      </trkpt>
      <trkpt lat="48.6449" lon="-2.47454">
        <ele>-2.4000000953674</ele>
        <time>2022-04-12T09:34:32Z</time>
      </trkpt>
      <trkpt lat="48.64496" lon="-2.47432">
        <ele>-2.2000000476837</ele>
        <time>2022-04-12T09:34:53Z</time>
      </trkpt>
      <trkpt lat="48.64507" lon="-2.47414">
        <ele>-2.4000000953674</ele>
        <time>2022-04-12T09:35:13Z</time>
      </trkpt>
      <trkpt lat="48.64511" lon="-2.47403">
        <ele>-3</ele>
        <time>2022-04-12T09:35:30Z</time>
      </trkpt>
      <trkpt lat="48.64509" lon="-2.47394">
        <ele>-3.5999999046326</ele>
        <time>2022-04-12T09:35:51Z</time>
      </trkpt>
      <trkpt lat="48.64508" lon="-2.47387">
        <ele>-2.2000000476837</ele>
        <time>2022-04-12T09:36:09Z</time>
      </trkpt>
      <trkpt lat="48.64504" lon="-2.47376">
        <ele>-1</ele>
        <time>2022-04-12T09:36:32Z</time>
      </trkpt>
      <trkpt lat="48.64501" lon="-2.47371">
        <ele>-0.80000001192093</ele>
        <time>2022-04-12T09:36:39Z</time>
      </trkpt>
      <trkpt lat="48.64497" lon="-2.47364">
        <ele>0.80000001192093</ele>
        <time>2022-04-12T09:36:55Z</time>
      </trkpt>
      <trkpt lat="48.64491" lon="-2.4736">
        <ele>1.6000000238419</ele>
        <time>2022-04-12T09:37:12Z</time>
      </trkpt>
      <trkpt lat="48.64488" lon="-2.47357">
        <ele>3.2000000476837</ele>
        <time>2022-04-12T09:37:33Z</time>
      </trkpt>
      <trkpt lat="48.64486" lon="-2.47351">
        <ele>4.4000000953674</ele>
        <time>2022-04-12T09:37:52Z</time>
      </trkpt>
      <trkpt lat="48.64482" lon="-2.47347">
        <ele>5</ele>
        <time>2022-04-12T09:38:09Z</time>
      </trkpt>
      <trkpt lat="48.64479" lon="-2.4734">
        <ele>6</ele>
        <time>2022-04-12T09:38:26Z</time>
      </trkpt>
      <trkpt lat="48.64475" lon="-2.47331">
        <ele>8.1999998092651</ele>
        <time>2022-04-12T09:38:45Z</time>
      </trkpt>
      <trkpt lat="48.64471" lon="-2.47327">
        <ele>9.8000001907349</ele>
        <time>2022-04-12T09:39:16Z</time>
      </trkpt>
      <trkpt lat="48.64468" lon="-2.47319">
        <ele>11.39999961853</ele>
        <time>2022-04-12T09:39:36Z</time>
      </trkpt>
      <trkpt lat="48.64466" lon="-2.47308">
        <ele>13.199999809265</ele>
        <time>2022-04-12T09:40:00Z</time>
      </trkpt>
      <trkpt lat="48.64464" lon="-2.47297">
        <ele>15.39999961853</ele>
        <time>2022-04-12T09:40:18Z</time>
      </trkpt>
      <trkpt lat="48.64461" lon="-2.47286">
        <ele>18.39999961853</ele>
        <time>2022-04-12T09:40:39Z</time>
      </trkpt>
      <trkpt lat="48.64461" lon="-2.47279">
        <ele>20.799999237061</ele>
        <time>2022-04-12T09:40:59Z</time>
      </trkpt>
      <trkpt lat="48.64458" lon="-2.47268">
        <ele>23.799999237061</ele>
        <time>2022-04-12T09:41:26Z</time>
      </trkpt>
      <trkpt lat="48.64454" lon="-2.47255">
        <ele>25.799999237061</ele>
        <time>2022-04-12T09:41:51Z</time>
      </trkpt>
      <trkpt lat="48.64448" lon="-2.47266">
        <ele>26.39999961853</ele>
        <time>2022-04-12T09:42:15Z</time>
      </trkpt>
      <trkpt lat="48.64438" lon="-2.47275">
        <ele>26.60000038147</ele>
        <time>2022-04-12T09:42:34Z</time>
      </trkpt>
      <trkpt lat="48.64437" lon="-2.47275">
        <ele>27.799999237061</ele>
        <time>2022-04-12T09:43:02Z</time>
      </trkpt>
      <trkpt lat="48.64438" lon="-2.47275">
        <ele>27.799999237061</ele>
        <time>2022-04-12T09:43:35Z</time>
      </trkpt>
      <trkpt lat="48.64434" lon="-2.47275">
        <ele>27.39999961853</ele>
        <time>2022-04-12T09:43:51Z</time>
      </trkpt>
      <trkpt lat="48.64432" lon="-2.47273">
        <ele>28.799999237061</ele>
        <time>2022-04-12T09:44:12Z</time>
      </trkpt>
      <trkpt lat="48.64434" lon="-2.4727">
        <ele>28.200000762939</ele>
        <time>2022-04-12T09:44:31Z</time>
      </trkpt>
      <trkpt lat="48.64436" lon="-2.47271">
        <ele>28.200000762939</ele>
        <time>2022-04-12T09:45:01Z</time>
      </trkpt>
      <trkpt lat="48.64441" lon="-2.47271">
        <ele>28</ele>
        <time>2022-04-12T09:45:13Z</time>
      </trkpt>
      <trkpt lat="48.64443" lon="-2.47269">
        <ele>27.799999237061</ele>
        <time>2022-04-12T09:45:15Z</time>
      </trkpt>
      <trkpt lat="48.6445" lon="-2.4725">
        <ele>26.799999237061</ele>
        <time>2022-04-12T09:45:32Z</time>
      </trkpt>
      <trkpt lat="48.64441" lon="-2.47231">
        <ele>28</ele>
        <time>2022-04-12T09:45:52Z</time>
      </trkpt>
      <trkpt lat="48.64437" lon="-2.47225">
        <ele>30</ele>
        <time>2022-04-12T09:46:07Z</time>
      </trkpt>
      <trkpt lat="48.64444" lon="-2.47245">
        <ele>29</ele>
        <time>2022-04-12T09:46:26Z</time>
      </trkpt>
      <trkpt lat="48.64448" lon="-2.47264">
        <ele>28.39999961853</ele>
        <time>2022-04-12T09:46:40Z</time>
      </trkpt>
      <trkpt lat="48.64447" lon="-2.47266">
        <ele>28.39999961853</ele>
        <time>2022-04-12T09:46:41Z</time>
      </trkpt>
      <trkpt lat="48.64438" lon="-2.47291">
        <ele>26.39999961853</ele>
        <time>2022-04-12T09:47:02Z</time>
      </trkpt>
      <trkpt lat="48.64433" lon="-2.47303">
        <ele>26.39999961853</ele>
        <time>2022-04-12T09:47:20Z</time>
      </trkpt>
      <trkpt lat="48.6442" lon="-2.47321">
        <ele>26.60000038147</ele>
        <time>2022-04-12T09:47:41Z</time>
      </trkpt>
      <trkpt lat="48.64416" lon="-2.47326">
        <ele>26.799999237061</ele>
        <time>2022-04-12T09:47:50Z</time>
      </trkpt>
      <trkpt lat="48.64413" lon="-2.47329">
        <ele>26.799999237061</ele>
        <time>2022-04-12T09:47:53Z</time>
      </trkpt>
      <trkpt lat="48.64399" lon="-2.47342">
        <ele>27.200000762939</ele>
        <time>2022-04-12T09:48:10Z</time>
      </trkpt>
      <trkpt lat="48.64385" lon="-2.47374">
        <ele>29</ele>
        <time>2022-04-12T09:48:34Z</time>
      </trkpt>
      <trkpt lat="48.64385" lon="-2.47376">
        <ele>29</ele>
        <time>2022-04-12T09:48:35Z</time>
      </trkpt>
      <trkpt lat="48.64372" lon="-2.47399">
        <ele>28.39999961853</ele>
        <time>2022-04-12T09:48:52Z</time>
      </trkpt>
      <trkpt lat="48.64352" lon="-2.47415">
        <ele>29.60000038147</ele>
        <time>2022-04-12T09:49:16Z</time>
      </trkpt>
      <trkpt lat="48.64335" lon="-2.4742">
        <ele>31.60000038147</ele>
        <time>2022-04-12T09:49:35Z</time>
      </trkpt>
      <trkpt lat="48.64322" lon="-2.47413">
        <ele>33.799999237061</ele>
        <time>2022-04-12T09:49:50Z</time>
      </trkpt>
      <trkpt lat="48.64304" lon="-2.47409">
        <ele>35.599998474121</ele>
        <time>2022-04-12T09:50:07Z</time>
      </trkpt>
      <trkpt lat="48.64288" lon="-2.47402">
        <ele>37.200000762939</ele>
        <time>2022-04-12T09:50:24Z</time>
      </trkpt>
      <trkpt lat="48.64272" lon="-2.474">
        <ele>39.200000762939</ele>
        <time>2022-04-12T09:50:42Z</time>
      </trkpt>
      <trkpt lat="48.64251" lon="-2.47406">
        <ele>39.200000762939</ele>
        <time>2022-04-12T09:51:00Z</time>
      </trkpt>
      <trkpt lat="48.64235" lon="-2.47407">
        <ele>38.799999237061</ele>
        <time>2022-04-12T09:51:13Z</time>
      </trkpt>
      <trkpt lat="48.64215" lon="-2.47402">
        <ele>38</ele>
        <time>2022-04-12T09:51:32Z</time>
      </trkpt>
      <trkpt lat="48.64198" lon="-2.474">
        <ele>37.200000762939</ele>
        <time>2022-04-12T09:51:49Z</time>
      </trkpt>
      <trkpt lat="48.64178" lon="-2.47391">
        <ele>37.599998474121</ele>
        <time>2022-04-12T09:52:07Z</time>
      </trkpt>
      <trkpt lat="48.6417" lon="-2.47386">
        <ele>38.200000762939</ele>
        <time>2022-04-12T09:52:27Z</time>
      </trkpt>
      <trkpt lat="48.64158" lon="-2.4738">
        <ele>38.400001525879</ele>
        <time>2022-04-12T09:52:47Z</time>
      </trkpt>
      <trkpt lat="48.64157" lon="-2.47379">
        <ele>38.400001525879</ele>
        <time>2022-04-12T09:52:48Z</time>
      </trkpt>
      <trkpt lat="48.64158" lon="-2.47372">
        <ele>38.599998474121</ele>
        <time>2022-04-12T09:53:07Z</time>
      </trkpt>
      <trkpt lat="48.6416" lon="-2.47375">
        <ele>38.400001525879</ele>
        <time>2022-04-12T09:53:57Z</time>
      </trkpt>
      <trkpt lat="48.64153" lon="-2.47378">
        <ele>38.400001525879</ele>
        <time>2022-04-12T09:54:42Z</time>
      </trkpt>
      <trkpt lat="48.64135" lon="-2.47384">
        <ele>37.599998474121</ele>
        <time>2022-04-12T09:55:01Z</time>
      </trkpt>
      <trkpt lat="48.64129" lon="-2.47386">
        <ele>37.200000762939</ele>
        <time>2022-04-12T09:55:08Z</time>
      </trkpt>
      <trkpt lat="48.64108" lon="-2.47391">
        <ele>36.599998474121</ele>
        <time>2022-04-12T09:55:28Z</time>
      </trkpt>
      <trkpt lat="48.64106" lon="-2.47392">
        <ele>36.400001525879</ele>
        <time>2022-04-12T09:55:29Z</time>
      </trkpt>
      <trkpt lat="48.64082" lon="-2.47398">
        <ele>36</ele>
        <time>2022-04-12T09:55:50Z</time>
      </trkpt>
      <trkpt lat="48.64064" lon="-2.47404">
        <ele>35.799999237061</ele>
        <time>2022-04-12T09:56:06Z</time>
      </trkpt>
      <trkpt lat="48.64032" lon="-2.4741">
        <ele>37.799999237061</ele>
        <time>2022-04-12T09:56:32Z</time>
      </trkpt>
      <trkpt lat="48.64015" lon="-2.47416">
        <ele>38.799999237061</ele>
        <time>2022-04-12T09:56:49Z</time>
      </trkpt>
      <trkpt lat="48.64014" lon="-2.47415">
        <ele>39.200000762939</ele>
        <time>2022-04-12T09:57:02Z</time>
      </trkpt>
      <trkpt lat="48.64007" lon="-2.47421">
        <ele>39.400001525879</ele>
        <time>2022-04-12T09:57:18Z</time>
      </trkpt>
      <trkpt lat="48.64005" lon="-2.47421">
        <ele>39.200000762939</ele>
        <time>2022-04-12T09:58:07Z</time>
      </trkpt>
      <trkpt lat="48.64009" lon="-2.47421">
        <ele>39</ele>
        <time>2022-04-12T09:58:23Z</time>
      </trkpt>
      <trkpt lat="48.64001" lon="-2.47417">
        <ele>39.200000762939</ele>
        <time>2022-04-12T09:58:39Z</time>
      </trkpt>
      <trkpt lat="48.63994" lon="-2.47417">
        <ele>39.200000762939</ele>
        <time>2022-04-12T09:58:46Z</time>
      </trkpt>
      <trkpt lat="48.63978" lon="-2.47424">
        <ele>39.799999237061</ele>
        <time>2022-04-12T09:59:03Z</time>
      </trkpt>
      <trkpt lat="48.63966" lon="-2.47426">
        <ele>40.200000762939</ele>
        <time>2022-04-12T09:59:20Z</time>
      </trkpt>
      <trkpt lat="48.6395" lon="-2.47432">
        <ele>40.799999237061</ele>
        <time>2022-04-12T09:59:39Z</time>
      </trkpt>
      <trkpt lat="48.63946" lon="-2.47432">
        <ele>40.799999237061</ele>
        <time>2022-04-12T09:59:44Z</time>
      </trkpt>
      <trkpt lat="48.63934" lon="-2.47433">
        <ele>41.200000762939</ele>
        <time>2022-04-12T09:59:59Z</time>
      </trkpt>
      <trkpt lat="48.63931" lon="-2.47434">
        <ele>41.200000762939</ele>
        <time>2022-04-12T10:00:02Z</time>
      </trkpt>
      <trkpt lat="48.63912" lon="-2.47438">
        <ele>42.200000762939</ele>
        <time>2022-04-12T10:00:21Z</time>
      </trkpt>
      <trkpt lat="48.63876" lon="-2.47448">
        <ele>43.200000762939</ele>
        <time>2022-04-12T10:00:53Z</time>
      </trkpt>
      <trkpt lat="48.63858" lon="-2.47454">
        <ele>43</ele>
        <time>2022-04-12T10:01:11Z</time>
      </trkpt>
      <trkpt lat="48.63845" lon="-2.47438">
        <ele>43</ele>
        <time>2022-04-12T10:01:36Z</time>
      </trkpt>
      <trkpt lat="48.63847" lon="-2.47433">
        <ele>43.200000762939</ele>
        <time>2022-04-12T10:02:08Z</time>
      </trkpt>
      <trkpt lat="48.63852" lon="-2.47438">
        <ele>43</ele>
        <time>2022-04-12T10:03:03Z</time>
      </trkpt>
      <trkpt lat="48.6385" lon="-2.4744">
        <ele>43</ele>
        <time>2022-04-12T10:03:32Z</time>
      </trkpt>
      <trkpt lat="48.6385" lon="-2.47457">
        <ele>42.799999237061</ele>
        <time>2022-04-12T10:03:53Z</time>
      </trkpt>
      <trkpt lat="48.6385" lon="-2.4746">
        <ele>42.799999237061</ele>
        <time>2022-04-12T10:03:55Z</time>
      </trkpt>
      <trkpt lat="48.63834" lon="-2.47468">
        <ele>42.200000762939</ele>
        <time>2022-04-12T10:04:10Z</time>
      </trkpt>
      <trkpt lat="48.63822" lon="-2.47465">
        <ele>42.200000762939</ele>
        <time>2022-04-12T10:04:21Z</time>
      </trkpt>
      <trkpt lat="48.63814" lon="-2.4746">
        <ele>42.200000762939</ele>
        <time>2022-04-12T10:04:29Z</time>
      </trkpt>
      <trkpt lat="48.63787" lon="-2.47437">
        <ele>42.200000762939</ele>
        <time>2022-04-12T10:04:54Z</time>
      </trkpt>
      <trkpt lat="48.63779" lon="-2.47407">
        <ele>42.400001525879</ele>
        <time>2022-04-12T10:05:17Z</time>
      </trkpt>
      <trkpt lat="48.63768" lon="-2.47354">
        <ele>41.599998474121</ele>
        <time>2022-04-12T10:05:47Z</time>
      </trkpt>
      <trkpt lat="48.63762" lon="-2.47335">
        <ele>39.799999237061</ele>
        <time>2022-04-12T10:06:03Z</time>
      </trkpt>
      <trkpt lat="48.63751" lon="-2.47333">
        <ele>39.599998474121</ele>
        <time>2022-04-12T10:06:32Z</time>
      </trkpt>
      <trkpt lat="48.63738" lon="-2.4733">
        <ele>40.200000762939</ele>
        <time>2022-04-12T10:06:47Z</time>
      </trkpt>
      <trkpt lat="48.63733" lon="-2.47327">
        <ele>40.200000762939</ele>
        <time>2022-04-12T10:06:52Z</time>
      </trkpt>
      <trkpt lat="48.63717" lon="-2.47311">
        <ele>40</ele>
        <time>2022-04-12T10:07:12Z</time>
      </trkpt>
      <trkpt lat="48.63717" lon="-2.47298">
        <ele>39.400001525879</ele>
        <time>2022-04-12T10:07:31Z</time>
      </trkpt>
      <trkpt lat="48.63711" lon="-2.47291">
        <ele>36.400001525879</ele>
        <time>2022-04-12T10:07:50Z</time>
      </trkpt>
      <trkpt lat="48.63707" lon="-2.47301">
        <ele>33.799999237061</ele>
        <time>2022-04-12T10:08:16Z</time>
      </trkpt>
      <trkpt lat="48.63703" lon="-2.47316">
        <ele>32.200000762939</ele>
        <time>2022-04-12T10:08:42Z</time>
      </trkpt>
      <trkpt lat="48.6371" lon="-2.47328">
        <ele>30.799999237061</ele>
        <time>2022-04-12T10:09:00Z</time>
      </trkpt>
      <trkpt lat="48.63707" lon="-2.47345">
        <ele>27.60000038147</ele>
        <time>2022-04-12T10:09:16Z</time>
      </trkpt>
      <trkpt lat="48.6371" lon="-2.47369">
        <ele>27</ele>
        <time>2022-04-12T10:09:35Z</time>
      </trkpt>
      <trkpt lat="48.63717" lon="-2.47364">
        <ele>27.39999961853</ele>
        <time>2022-04-12T10:09:52Z</time>
      </trkpt>
      <trkpt lat="48.63733" lon="-2.47361">
        <ele>27.39999961853</ele>
        <time>2022-04-12T10:10:23Z</time>
      </trkpt>
      <trkpt lat="48.63714" lon="-2.47367">
        <ele>27.39999961853</ele>
        <time>2022-04-12T10:11:02Z</time>
      </trkpt>
      <trkpt lat="48.63715" lon="-2.47385">
        <ele>27.39999961853</ele>
        <time>2022-04-12T10:11:19Z</time>
      </trkpt>
      <trkpt lat="48.63715" lon="-2.47402">
        <ele>27</ele>
        <time>2022-04-12T10:11:39Z</time>
      </trkpt>
      <trkpt lat="48.63715" lon="-2.47419">
        <ele>26</ele>
        <time>2022-04-12T10:12:05Z</time>
      </trkpt>
      <trkpt lat="48.63705" lon="-2.47424">
        <ele>25.60000038147</ele>
        <time>2022-04-12T10:12:25Z</time>
      </trkpt>
      <trkpt lat="48.63697" lon="-2.4744">
        <ele>24.60000038147</ele>
        <time>2022-04-12T10:12:47Z</time>
      </trkpt>
      <trkpt lat="48.63698" lon="-2.47445">
        <ele>22.200000762939</ele>
        <time>2022-04-12T10:13:12Z</time>
      </trkpt>
      <trkpt lat="48.63701" lon="-2.47456">
        <ele>21.200000762939</ele>
        <time>2022-04-12T10:13:36Z</time>
      </trkpt>
      <trkpt lat="48.63706" lon="-2.47454">
        <ele>20</ele>
        <time>2022-04-12T10:13:56Z</time>
      </trkpt>
      <trkpt lat="48.63708" lon="-2.47454">
        <ele>20</ele>
        <time>2022-04-12T10:14:13Z</time>
      </trkpt>
      <trkpt lat="48.63706" lon="-2.47454">
        <ele>19.799999237061</ele>
        <time>2022-04-12T10:14:24Z</time>
      </trkpt>
      <trkpt lat="48.63701" lon="-2.47466">
        <ele>19.799999237061</ele>
        <time>2022-04-12T10:14:55Z</time>
      </trkpt>
      <trkpt lat="48.63702" lon="-2.47478">
        <ele>19.799999237061</ele>
        <time>2022-04-12T10:15:24Z</time>
      </trkpt>
      <trkpt lat="48.63708" lon="-2.47492">
        <ele>20.799999237061</ele>
        <time>2022-04-12T10:15:41Z</time>
      </trkpt>
      <trkpt lat="48.63721" lon="-2.47505">
        <ele>22.799999237061</ele>
        <time>2022-04-12T10:15:59Z</time>
      </trkpt>
      <trkpt lat="48.63719" lon="-2.47516">
        <ele>23</ele>
        <time>2022-04-12T10:16:19Z</time>
      </trkpt>
      <trkpt lat="48.63721" lon="-2.47542">
        <ele>22.60000038147</ele>
        <time>2022-04-12T10:16:43Z</time>
      </trkpt>
      <trkpt lat="48.63723" lon="-2.47562">
        <ele>22.39999961853</ele>
        <time>2022-04-12T10:17:07Z</time>
      </trkpt>
      <trkpt lat="48.63723" lon="-2.47585">
        <ele>22.200000762939</ele>
        <time>2022-04-12T10:17:25Z</time>
      </trkpt>
      <trkpt lat="48.63732" lon="-2.47606">
        <ele>21.39999961853</ele>
        <time>2022-04-12T10:17:46Z</time>
      </trkpt>
      <trkpt lat="48.63744" lon="-2.47641">
        <ele>20</ele>
        <time>2022-04-12T10:18:13Z</time>
      </trkpt>
      <trkpt lat="48.63744" lon="-2.4767">
        <ele>20.799999237061</ele>
        <time>2022-04-12T10:18:34Z</time>
      </trkpt>
      <trkpt lat="48.63737" lon="-2.4768">
        <ele>21</ele>
        <time>2022-04-12T10:19:02Z</time>
      </trkpt>
      <trkpt lat="48.6374" lon="-2.47702">
        <ele>21.799999237061</ele>
        <time>2022-04-12T10:19:22Z</time>
      </trkpt>
      <trkpt lat="48.63746" lon="-2.47725">
        <ele>22.200000762939</ele>
        <time>2022-04-12T10:19:48Z</time>
      </trkpt>
      <trkpt lat="48.63751" lon="-2.47739">
        <ele>22.39999961853</ele>
        <time>2022-04-12T10:20:06Z</time>
      </trkpt>
      <trkpt lat="48.63754" lon="-2.47745">
        <ele>22.60000038147</ele>
        <time>2022-04-12T10:20:11Z</time>
      </trkpt>
      <trkpt lat="48.63759" lon="-2.47763">
        <ele>23</ele>
        <time>2022-04-12T10:20:30Z</time>
      </trkpt>
      <trkpt lat="48.6376" lon="-2.47762">
        <ele>23.200000762939</ele>
        <time>2022-04-12T10:21:04Z</time>
      </trkpt>
      <trkpt lat="48.63759" lon="-2.47764">
        <ele>23</ele>
        <time>2022-04-12T10:21:55Z</time>
      </trkpt>
      <trkpt lat="48.6376" lon="-2.47768">
        <ele>22.799999237061</ele>
        <time>2022-04-12T10:22:10Z</time>
      </trkpt>
      <trkpt lat="48.63761" lon="-2.47781">
        <ele>23.39999961853</ele>
        <time>2022-04-12T10:22:27Z</time>
      </trkpt>
      <trkpt lat="48.63763" lon="-2.47799">
        <ele>26.60000038147</ele>
        <time>2022-04-12T10:22:46Z</time>
      </trkpt>
      <trkpt lat="48.63762" lon="-2.47804">
        <ele>27.200000762939</ele>
        <time>2022-04-12T10:22:49Z</time>
      </trkpt>
      <trkpt lat="48.63754" lon="-2.47825">
        <ele>29.200000762939</ele>
        <time>2022-04-12T10:23:06Z</time>
      </trkpt>
      <trkpt lat="48.63755" lon="-2.47845">
        <ele>29.60000038147</ele>
        <time>2022-04-12T10:23:24Z</time>
      </trkpt>
      <trkpt lat="48.63759" lon="-2.47863">
        <ele>29.799999237061</ele>
        <time>2022-04-12T10:23:38Z</time>
      </trkpt>
      <trkpt lat="48.63762" lon="-2.47872">
        <ele>30</ele>
        <time>2022-04-12T10:23:44Z</time>
      </trkpt>
      <trkpt lat="48.63765" lon="-2.47885">
        <ele>30</ele>
        <time>2022-04-12T10:23:59Z</time>
      </trkpt>
      <trkpt lat="48.63766" lon="-2.47892">
        <ele>30.200000762939</ele>
        <time>2022-04-12T10:24:18Z</time>
      </trkpt>
      <trkpt lat="48.63768" lon="-2.47901">
        <ele>30</ele>
        <time>2022-04-12T10:24:40Z</time>
      </trkpt>
      <trkpt lat="48.63768" lon="-2.47923">
        <ele>30.39999961853</ele>
        <time>2022-04-12T10:24:55Z</time>
      </trkpt>
      <trkpt lat="48.63766" lon="-2.47932">
        <ele>31.200000762939</ele>
        <time>2022-04-12T10:25:04Z</time>
      </trkpt>
      <trkpt lat="48.63767" lon="-2.47937">
        <ele>31.200000762939</ele>
        <time>2022-04-12T10:25:07Z</time>
      </trkpt>
      <trkpt lat="48.63775" lon="-2.4796">
        <ele>30.799999237061</ele>
        <time>2022-04-12T10:25:23Z</time>
      </trkpt>
      <trkpt lat="48.63783" lon="-2.47981">
        <ele>29.60000038147</ele>
        <time>2022-04-12T10:25:38Z</time>
      </trkpt>
      <trkpt lat="48.63776" lon="-2.48005">
        <ele>28.60000038147</ele>
        <time>2022-04-12T10:25:56Z</time>
      </trkpt>
      <trkpt lat="48.63778" lon="-2.48015">
        <ele>27.799999237061</ele>
        <time>2022-04-12T10:26:10Z</time>
      </trkpt>
      <trkpt lat="48.63781" lon="-2.48022">
        <ele>26.39999961853</ele>
        <time>2022-04-12T10:26:25Z</time>
      </trkpt>
      <trkpt lat="48.63787" lon="-2.48027">
        <ele>26.200000762939</ele>
        <time>2022-04-12T10:26:33Z</time>
      </trkpt>
      <trkpt lat="48.63795" lon="-2.48041">
        <ele>25</ele>
        <time>2022-04-12T10:26:47Z</time>
      </trkpt>
      <trkpt lat="48.63797" lon="-2.48047">
        <ele>24.39999961853</ele>
        <time>2022-04-12T10:27:09Z</time>
      </trkpt>
      <trkpt lat="48.63797" lon="-2.48049">
        <ele>24.200000762939</ele>
        <time>2022-04-12T10:27:25Z</time>
      </trkpt>
      <trkpt lat="48.63799" lon="-2.48053">
        <ele>24.200000762939</ele>
        <time>2022-04-12T10:27:29Z</time>
      </trkpt>
      <trkpt lat="48.63806" lon="-2.48074">
        <ele>22.799999237061</ele>
        <time>2022-04-12T10:27:44Z</time>
      </trkpt>
      <trkpt lat="48.63807" lon="-2.48083">
        <ele>21.200000762939</ele>
        <time>2022-04-12T10:27:59Z</time>
      </trkpt>
      <trkpt lat="48.63809" lon="-2.48095">
        <ele>19.39999961853</ele>
        <time>2022-04-12T10:28:13Z</time>
      </trkpt>
      <trkpt lat="48.63814" lon="-2.48115">
        <ele>18.200000762939</ele>
        <time>2022-04-12T10:28:30Z</time>
      </trkpt>
      <trkpt lat="48.63818" lon="-2.48129">
        <ele>17.39999961853</ele>
        <time>2022-04-12T10:28:51Z</time>
      </trkpt>
      <trkpt lat="48.63824" lon="-2.48135">
        <ele>18.200000762939</ele>
        <time>2022-04-12T10:29:07Z</time>
      </trkpt>
      <trkpt lat="48.63821" lon="-2.48143">
        <ele>18.60000038147</ele>
        <time>2022-04-12T10:29:22Z</time>
      </trkpt>
      <trkpt lat="48.63822" lon="-2.48147">
        <ele>18.60000038147</ele>
        <time>2022-04-12T10:29:26Z</time>
      </trkpt>
      <trkpt lat="48.63823" lon="-2.48164">
        <ele>18.200000762939</ele>
        <time>2022-04-12T10:29:41Z</time>
      </trkpt>
      <trkpt lat="48.63824" lon="-2.48171">
        <ele>18</ele>
        <time>2022-04-12T10:29:45Z</time>
      </trkpt>
      <trkpt lat="48.63826" lon="-2.48175">
        <ele>18</ele>
        <time>2022-04-12T10:29:48Z</time>
      </trkpt>
      <trkpt lat="48.63826" lon="-2.48179">
        <ele>17.799999237061</ele>
        <time>2022-04-12T10:29:51Z</time>
      </trkpt>
      <trkpt lat="48.63828" lon="-2.48188">
        <ele>17.60000038147</ele>
        <time>2022-04-12T10:29:57Z</time>
      </trkpt>
      <trkpt lat="48.63834" lon="-2.48202">
        <ele>16.200000762939</ele>
        <time>2022-04-12T10:30:09Z</time>
      </trkpt>
      <trkpt lat="48.63834" lon="-2.48208">
        <ele>16</ele>
        <time>2022-04-12T10:30:13Z</time>
      </trkpt>
      <trkpt lat="48.63837" lon="-2.48235">
        <ele>14.60000038147</ele>
        <time>2022-04-12T10:30:32Z</time>
      </trkpt>
      <trkpt lat="48.63839" lon="-2.48247">
        <ele>14.199999809265</ele>
        <time>2022-04-12T10:30:44Z</time>
      </trkpt>
      <trkpt lat="48.63844" lon="-2.48264">
        <ele>13.800000190735</ele>
        <time>2022-04-12T10:31:00Z</time>
      </trkpt>
      <trkpt lat="48.63854" lon="-2.48267">
        <ele>14.199999809265</ele>
        <time>2022-04-12T10:31:19Z</time>
      </trkpt>
      <trkpt lat="48.63858" lon="-2.48264">
        <ele>17.39999961853</ele>
        <time>2022-04-12T10:31:31Z</time>
      </trkpt>
      <trkpt lat="48.63866" lon="-2.48263">
        <ele>20.39999961853</ele>
        <time>2022-04-12T10:31:47Z</time>
      </trkpt>
      <trkpt lat="48.6387" lon="-2.48264">
        <ele>23.200000762939</ele>
        <time>2022-04-12T10:32:01Z</time>
      </trkpt>
      <trkpt lat="48.6387" lon="-2.48272">
        <ele>23.60000038147</ele>
        <time>2022-04-12T10:32:12Z</time>
      </trkpt>
      <trkpt lat="48.6387" lon="-2.48278">
        <ele>23.60000038147</ele>
        <time>2022-04-12T10:32:17Z</time>
      </trkpt>
      <trkpt lat="48.63869" lon="-2.4829">
        <ele>23.799999237061</ele>
        <time>2022-04-12T10:32:34Z</time>
      </trkpt>
      <trkpt lat="48.63868" lon="-2.48293">
        <ele>23.799999237061</ele>
        <time>2022-04-12T10:33:09Z</time>
      </trkpt>
      <trkpt lat="48.63866" lon="-2.48293">
        <ele>24</ele>
        <time>2022-04-12T10:33:35Z</time>
      </trkpt>
      <trkpt lat="48.63869" lon="-2.48292">
        <ele>24.799999237061</ele>
        <time>2022-04-12T10:34:01Z</time>
      </trkpt>
      <trkpt lat="48.6387" lon="-2.48297">
        <ele>25</ele>
        <time>2022-04-12T10:34:17Z</time>
      </trkpt>
      <trkpt lat="48.63869" lon="-2.48298">
        <ele>25.799999237061</ele>
        <time>2022-04-12T10:34:55Z</time>
      </trkpt>
      <trkpt lat="48.6387" lon="-2.48301">
        <ele>25.39999961853</ele>
        <time>2022-04-12T10:35:34Z</time>
      </trkpt>
      <trkpt lat="48.63868" lon="-2.48295">
        <ele>26</ele>
        <time>2022-04-12T10:36:21Z</time>
      </trkpt>
      <trkpt lat="48.63867" lon="-2.48293">
        <ele>23.60000038147</ele>
        <time>2022-04-12T10:36:37Z</time>
      </trkpt>
      <trkpt lat="48.6387" lon="-2.48293">
        <ele>24.60000038147</ele>
        <time>2022-04-12T10:37:05Z</time>
      </trkpt>
      <trkpt lat="48.63868" lon="-2.48274">
        <ele>23.799999237061</ele>
        <time>2022-04-12T10:37:27Z</time>
      </trkpt>
      <trkpt lat="48.63869" lon="-2.48259">
        <ele>23.799999237061</ele>
        <time>2022-04-12T10:37:44Z</time>
      </trkpt>
      <trkpt lat="48.63869" lon="-2.48258">
        <ele>23.799999237061</ele>
        <time>2022-04-12T10:37:45Z</time>
      </trkpt>
      <trkpt lat="48.6387" lon="-2.4825">
        <ele>23.799999237061</ele>
        <time>2022-04-12T10:37:50Z</time>
      </trkpt>
      <trkpt lat="48.63862" lon="-2.48221">
        <ele>24.200000762939</ele>
        <time>2022-04-12T10:38:08Z</time>
      </trkpt>
      <trkpt lat="48.63858" lon="-2.48208">
        <ele>24.39999961853</ele>
        <time>2022-04-12T10:38:17Z</time>
      </trkpt>
      <trkpt lat="48.6385" lon="-2.48185">
        <ele>26.60000038147</ele>
        <time>2022-04-12T10:38:37Z</time>
      </trkpt>
      <trkpt lat="48.63864" lon="-2.48169">
        <ele>27</ele>
        <time>2022-04-12T10:38:57Z</time>
      </trkpt>
      <trkpt lat="48.63867" lon="-2.48168">
        <ele>27.200000762939</ele>
        <time>2022-04-12T10:38:59Z</time>
      </trkpt>
      <trkpt lat="48.63878" lon="-2.48155">
        <ele>28.60000038147</ele>
        <time>2022-04-12T10:39:15Z</time>
      </trkpt>
      <trkpt lat="48.63892" lon="-2.48144">
        <ele>26.39999961853</ele>
        <time>2022-04-12T10:39:34Z</time>
      </trkpt>
      <trkpt lat="48.63909" lon="-2.48148">
        <ele>26.60000038147</ele>
        <time>2022-04-12T10:39:51Z</time>
      </trkpt>
      <trkpt lat="48.63915" lon="-2.48137">
        <ele>28.200000762939</ele>
        <time>2022-04-12T10:40:07Z</time>
      </trkpt>
      <trkpt lat="48.63927" lon="-2.48132">
        <ele>31.200000762939</ele>
        <time>2022-04-12T10:40:27Z</time>
      </trkpt>
      <trkpt lat="48.63938" lon="-2.48134">
        <ele>34.200000762939</ele>
        <time>2022-04-12T10:40:43Z</time>
      </trkpt>
      <trkpt lat="48.63954" lon="-2.48134">
        <ele>37.400001525879</ele>
        <time>2022-04-12T10:41:05Z</time>
      </trkpt>
      <trkpt lat="48.63964" lon="-2.48131">
        <ele>38.599998474121</ele>
        <time>2022-04-12T10:41:24Z</time>
      </trkpt>
      <trkpt lat="48.6397" lon="-2.48138">
        <ele>38.799999237061</ele>
        <time>2022-04-12T10:41:32Z</time>
      </trkpt>
      <trkpt lat="48.63986" lon="-2.48158">
        <ele>37.200000762939</ele>
        <time>2022-04-12T10:41:52Z</time>
      </trkpt>
      <trkpt lat="48.63995" lon="-2.48165">
        <ele>36.200000762939</ele>
        <time>2022-04-12T10:42:02Z</time>
      </trkpt>
      <trkpt lat="48.64013" lon="-2.48178">
        <ele>34.400001525879</ele>
        <time>2022-04-12T10:42:21Z</time>
      </trkpt>
      <trkpt lat="48.6403" lon="-2.48191">
        <ele>33</ele>
        <time>2022-04-12T10:42:38Z</time>
      </trkpt>
      <trkpt lat="48.64031" lon="-2.48192">
        <ele>33</ele>
        <time>2022-04-12T10:42:39Z</time>
      </trkpt>
      <trkpt lat="48.64038" lon="-2.48196">
        <ele>32.799999237061</ele>
        <time>2022-04-12T10:42:46Z</time>
      </trkpt>
      <trkpt lat="48.64054" lon="-2.48206">
        <ele>33</ele>
        <time>2022-04-12T10:43:06Z</time>
      </trkpt>
      <trkpt lat="48.64058" lon="-2.48211">
        <ele>33.200000762939</ele>
        <time>2022-04-12T10:43:27Z</time>
      </trkpt>
      <trkpt lat="48.64068" lon="-2.48219">
        <ele>33.200000762939</ele>
        <time>2022-04-12T10:43:41Z</time>
      </trkpt>
      <trkpt lat="48.64077" lon="-2.48226">
        <ele>33.599998474121</ele>
        <time>2022-04-12T10:43:56Z</time>
      </trkpt>
      <trkpt lat="48.6409" lon="-2.48233">
        <ele>33.599998474121</ele>
        <time>2022-04-12T10:44:12Z</time>
      </trkpt>
      <trkpt lat="48.64095" lon="-2.48237">
        <ele>33</ele>
        <time>2022-04-12T10:44:25Z</time>
      </trkpt>
      <trkpt lat="48.64097" lon="-2.48237">
        <ele>33</ele>
        <time>2022-04-12T10:44:34Z</time>
      </trkpt>
      <trkpt lat="48.64099" lon="-2.48237">
        <ele>33</ele>
        <time>2022-04-12T10:44:36Z</time>
      </trkpt>
      <trkpt lat="48.64118" lon="-2.48249">
        <ele>31.39999961853</ele>
        <time>2022-04-12T10:44:55Z</time>
      </trkpt>
      <trkpt lat="48.64135" lon="-2.4826">
        <ele>29.39999961853</ele>
        <time>2022-04-12T10:45:11Z</time>
      </trkpt>
      <trkpt lat="48.64141" lon="-2.48267">
        <ele>28.60000038147</ele>
        <time>2022-04-12T10:45:30Z</time>
      </trkpt>
      <trkpt lat="48.64154" lon="-2.48282">
        <ele>28.200000762939</ele>
        <time>2022-04-12T10:45:49Z</time>
      </trkpt>
      <trkpt lat="48.64159" lon="-2.4829">
        <ele>28.200000762939</ele>
        <time>2022-04-12T10:46:04Z</time>
      </trkpt>
      <trkpt lat="48.64161" lon="-2.48292">
        <ele>28.200000762939</ele>
        <time>2022-04-12T10:46:07Z</time>
      </trkpt>
      <trkpt lat="48.64173" lon="-2.4831">
        <ele>28.39999961853</ele>
        <time>2022-04-12T10:46:25Z</time>
      </trkpt>
      <trkpt lat="48.64179" lon="-2.48316">
        <ele>28.799999237061</ele>
        <time>2022-04-12T10:46:42Z</time>
      </trkpt>
      <trkpt lat="48.64181" lon="-2.48318">
        <ele>28.799999237061</ele>
        <time>2022-04-12T10:46:45Z</time>
      </trkpt>
      <trkpt lat="48.64188" lon="-2.48326">
        <ele>28.60000038147</ele>
        <time>2022-04-12T10:47:01Z</time>
      </trkpt>
      <trkpt lat="48.64193" lon="-2.48329">
        <ele>28.60000038147</ele>
        <time>2022-04-12T10:47:30Z</time>
      </trkpt>
      <trkpt lat="48.64201" lon="-2.48328">
        <ele>28</ele>
        <time>2022-04-12T10:47:44Z</time>
      </trkpt>
    </trkseg>
  </trk>
</gpx>